createdAt,value
2018-09-29T00:01:26.512Z,99.90
2018-09-29T00:03:54.995Z,99.90
2018-09-29T00:06:23.571Z,99.90
2018-09-29T00:08:52.167Z,99.90
2018-09-29T00:11:20.673Z,99.90
2018-09-29T00:13:49.191Z,99.90
2018-09-29T00:16:17.704Z,99.90
2018-09-29T00:18:46.257Z,99.90
2018-09-29T00:21:14.763Z,99.90
2018-09-29T00:23:43.271Z,99.90
2018-09-29T00:26:11.781Z,99.90
2018-09-29T00:28:40.344Z,99.90
2018-09-29T00:31:08.943Z,99.90
2018-09-29T00:33:38.121Z,99.90
2018-09-29T00:36:06.857Z,99.90
2018-09-29T00:38:35.354Z,99.90
2018-09-29T00:41:03.874Z,99.90
2018-09-29T00:43:32.374Z,99.90
2018-09-29T00:46:00.860Z,99.90
2018-09-29T00:48:29.420Z,99.90
2018-09-29T00:50:57.969Z,99.90
2018-09-29T00:53:26.504Z,99.90
2018-09-29T00:55:55.024Z,99.90
2018-09-29T00:58:23.531Z,99.90
2018-09-29T01:00:52.064Z,99.90
2018-09-29T01:03:20.592Z,99.90
2018-09-29T01:05:49.151Z,99.90
2018-09-29T01:08:17.792Z,99.90
2018-09-29T01:10:46.303Z,99.90
2018-09-29T01:13:14.812Z,99.90
2018-09-29T01:15:43.388Z,99.90
2018-09-29T01:18:11.937Z,99.90
2018-09-29T01:20:40.488Z,99.90
2018-09-29T01:23:09.008Z,99.90
2018-09-29T01:25:37.532Z,99.90
2018-09-29T01:28:06.047Z,99.90
2018-09-29T01:30:34.547Z,99.90
2018-09-29T01:33:03.056Z,99.90
2018-09-29T01:35:31.554Z,99.90
2018-09-29T01:38:00.052Z,99.90
2018-09-29T01:40:28.591Z,99.90
2018-09-29T01:42:57.100Z,99.90
2018-09-29T01:45:25.645Z,99.90
2018-09-29T01:47:54.175Z,99.90
2018-09-29T01:50:22.712Z,99.90
2018-09-29T01:52:51.261Z,99.90
2018-09-29T01:55:19.769Z,99.90
2018-09-29T01:57:48.287Z,99.90
2018-09-29T02:00:16.809Z,99.90
2018-09-29T02:02:45.338Z,99.90
2018-09-29T02:05:13.905Z,99.90
2018-09-29T02:07:42.383Z,99.90
2018-09-29T02:10:10.912Z,99.90
2018-09-29T02:12:39.415Z,99.90
2018-09-29T02:15:07.941Z,99.90
2018-09-29T02:17:36.477Z,99.90
2018-09-29T02:20:05.275Z,99.90
2018-09-29T02:22:33.815Z,99.90
2018-09-29T02:25:02.306Z,99.90
2018-09-29T02:27:30.820Z,99.90
2018-09-29T02:29:59.347Z,99.90
2018-09-29T02:32:27.829Z,99.90
2018-09-29T02:34:56.355Z,99.90
2018-09-29T02:37:24.916Z,99.90
2018-09-29T02:39:53.422Z,99.90
2018-09-29T02:42:21.951Z,99.90
2018-09-29T02:44:50.435Z,99.90
2018-09-29T02:47:19.002Z,99.90
2018-09-29T02:49:47.532Z,99.90
2018-09-29T02:52:16.088Z,99.90
2018-09-29T02:54:44.584Z,99.90
2018-09-29T02:57:13.076Z,99.90
2018-09-29T02:59:41.634Z,99.90
2018-09-29T03:02:10.136Z,99.90
2018-09-29T03:04:38.653Z,99.90
2018-09-29T03:07:07.238Z,99.90
2018-09-29T03:09:35.717Z,99.90
2018-09-29T03:12:04.227Z,99.90
2018-09-29T03:14:32.752Z,99.90
2018-09-29T03:17:01.369Z,99.90
2018-09-29T03:19:29.884Z,99.90
2018-09-29T03:21:58.416Z,99.90
2018-09-29T03:24:26.944Z,99.90
2018-09-29T03:26:55.497Z,99.90
2018-09-29T03:29:23.996Z,99.90
2018-09-29T03:31:52.574Z,99.90
2018-09-29T03:34:20.985Z,99.90
2018-09-29T03:36:49.487Z,99.90
2018-09-29T03:39:18.040Z,99.90
2018-09-29T03:41:46.604Z,99.90
2018-09-29T03:44:15.140Z,99.90
2018-09-29T03:46:43.666Z,99.90
2018-09-29T03:49:12.165Z,99.90
2018-09-29T03:51:40.687Z,99.90
2018-09-29T03:54:09.187Z,99.90
2018-09-29T03:56:37.721Z,99.90
2018-09-29T03:59:06.272Z,99.90
2018-09-29T04:01:35.116Z,99.90
2018-09-29T04:04:06.464Z,99.90
2018-09-29T04:06:35.007Z,99.90
2018-09-29T04:09:04.009Z,99.90
2018-09-29T04:11:32.528Z,99.90
2018-09-29T04:14:01.258Z,99.90
2018-09-29T04:16:29.654Z,99.90
2018-09-29T04:18:58.192Z,99.90
2018-09-29T04:21:26.710Z,99.90
2018-09-29T04:23:55.220Z,99.90
2018-09-29T04:26:23.725Z,99.90
2018-09-29T04:28:52.226Z,99.90
2018-09-29T04:31:20.725Z,99.90
2018-09-29T04:33:49.236Z,99.90
2018-09-29T04:36:17.759Z,99.90
2018-09-29T04:38:46.284Z,99.90
2018-09-29T04:41:14.808Z,99.90
2018-09-29T04:43:43.295Z,99.90
2018-09-29T04:46:11.837Z,99.90
2018-09-29T04:48:40.388Z,99.90
2018-09-29T04:51:08.883Z,99.90
2018-09-29T04:53:37.418Z,99.90
2018-09-29T04:56:05.988Z,99.90
2018-09-29T04:58:34.586Z,99.90
2018-09-29T05:01:03.275Z,99.90
2018-09-29T05:03:31.800Z,99.90
2018-09-29T05:06:00.355Z,99.90
2018-09-29T05:08:28.876Z,99.90
2018-09-29T05:10:57.424Z,99.90
2018-09-29T05:13:25.944Z,99.90
2018-09-29T05:15:54.452Z,99.90
2018-09-29T05:18:22.949Z,99.90
2018-09-29T05:20:51.487Z,99.90
2018-09-29T05:23:20.092Z,99.90
2018-09-29T05:25:48.620Z,99.90
2018-09-29T05:28:17.159Z,99.90
2018-09-29T05:30:45.696Z,99.90
2018-09-29T05:33:14.444Z,99.90
2018-09-29T05:35:42.995Z,99.90
2018-09-29T05:38:11.467Z,99.90
2018-09-29T05:40:39.984Z,99.90
2018-09-29T05:43:08.539Z,99.90
2018-09-29T05:45:37.055Z,99.90
2018-09-29T05:48:05.608Z,99.90
2018-09-29T05:50:34.087Z,99.90
2018-09-29T05:53:02.587Z,99.90
2018-09-29T05:55:31.168Z,99.90
2018-09-29T05:57:59.660Z,99.90
2018-09-29T06:00:28.247Z,99.90
2018-09-29T06:02:56.752Z,99.90
2018-09-29T06:05:25.341Z,99.90
2018-09-29T06:07:53.835Z,99.90
2018-09-29T06:10:22.349Z,99.90
2018-09-29T06:12:50.948Z,99.90
2018-09-29T06:15:19.482Z,99.90
2018-09-29T06:17:47.987Z,99.90
2018-09-29T06:20:16.514Z,99.90
2018-09-29T06:22:45.017Z,99.90
2018-09-29T06:25:13.545Z,99.90
2018-09-29T06:27:42.071Z,99.90
2018-09-29T06:30:10.573Z,99.90
2018-09-29T06:32:39.082Z,99.90
2018-09-29T06:35:07.629Z,99.90
2018-09-29T06:37:36.194Z,99.90
2018-09-29T06:40:05.055Z,99.90
2018-09-29T06:42:33.603Z,99.90
2018-09-29T06:45:02.120Z,99.90
2018-09-29T06:47:30.658Z,99.90
2018-09-29T06:49:59.177Z,99.90
2018-09-29T06:52:27.713Z,99.90
2018-09-29T06:54:56.224Z,99.90
2018-09-29T06:57:24.752Z,99.90
2018-09-29T06:59:53.249Z,99.90
2018-09-29T07:02:22.528Z,99.90
2018-09-29T07:04:51.068Z,99.90
2018-09-29T07:07:19.568Z,99.90
2018-09-29T07:09:48.103Z,99.90
2018-09-29T07:12:16.629Z,99.90
2018-09-29T07:14:45.339Z,99.90
2018-09-29T07:17:13.855Z,99.90
2018-09-29T07:19:42.473Z,99.90
2018-09-29T07:22:10.985Z,99.90
2018-09-29T07:24:39.528Z,99.90
2018-09-29T07:27:08.068Z,99.90
2018-09-29T07:29:36.563Z,99.90
2018-09-29T07:32:05.078Z,99.90
2018-09-29T07:34:33.589Z,99.90
2018-09-29T07:37:02.129Z,99.90
2018-09-29T07:39:30.707Z,99.90
2018-09-29T07:41:59.247Z,99.90
2018-09-29T07:44:27.808Z,99.90
2018-09-29T07:46:56.300Z,99.90
2018-09-29T07:49:24.789Z,99.90
2018-09-29T07:51:53.356Z,99.90
2018-09-29T07:54:23.224Z,99.90
2018-09-29T07:56:51.843Z,99.90
2018-09-29T07:59:20.360Z,99.90
2018-09-29T08:01:48.925Z,99.90
2018-09-29T08:04:17.448Z,99.90
2018-09-29T08:06:45.987Z,99.90
2018-09-29T08:09:14.513Z,99.90
2018-09-29T08:11:44.484Z,99.90
2018-09-29T08:14:13.077Z,99.90
2018-09-29T08:16:41.624Z,99.90
2018-09-29T08:19:10.175Z,99.90
2018-09-29T08:21:38.714Z,99.90
2018-09-29T08:24:07.102Z,99.90
2018-09-29T08:26:35.651Z,99.90
2018-09-29T08:29:04.163Z,99.90
2018-09-29T08:31:32.684Z,99.90
2018-09-29T08:34:01.253Z,99.90
2018-09-29T08:36:29.830Z,99.90
2018-09-29T08:38:58.356Z,99.90
2018-09-29T08:41:26.956Z,99.90
2018-09-29T08:43:57.098Z,99.90
2018-09-29T08:46:27.345Z,99.90
2018-09-29T08:48:55.918Z,99.90
2018-09-29T08:51:25.019Z,99.90
2018-09-29T08:53:53.545Z,99.90
2018-09-29T08:56:22.069Z,99.90
2018-09-29T08:58:50.660Z,99.90
2018-09-29T09:01:19.865Z,99.90
2018-09-29T09:03:48.426Z,99.90
2018-09-29T09:06:17.089Z,99.90
2018-09-29T09:08:45.588Z,99.90
2018-09-29T09:11:14.125Z,99.90
2018-09-29T09:13:42.678Z,99.90
2018-09-29T09:16:11.204Z,99.90
2018-09-29T09:18:39.752Z,99.90
2018-09-29T09:21:08.284Z,99.90
2018-09-29T09:23:36.850Z,99.90
2018-09-29T09:26:05.421Z,99.90
2018-09-29T09:28:33.939Z,99.90
2018-09-29T09:31:02.512Z,99.90
2018-09-29T09:33:31.020Z,99.90
2018-09-29T09:35:59.611Z,99.90
2018-09-29T09:38:28.099Z,99.90
2018-09-29T09:40:56.654Z,99.90
2018-09-29T09:43:25.152Z,99.90
2018-09-29T09:45:53.664Z,99.90
2018-09-29T09:48:22.220Z,99.90
2018-09-29T09:50:50.772Z,99.90
2018-09-29T09:53:19.304Z,99.90
2018-09-29T09:55:47.869Z,99.90
2018-09-29T09:58:16.376Z,99.90
2018-09-29T10:00:50.165Z,99.90
2018-09-29T10:03:23.907Z,99.90
2018-09-29T10:05:52.451Z,99.90
2018-09-29T10:08:20.980Z,99.90
2018-09-29T10:10:49.532Z,99.90
2018-09-29T10:13:18.064Z,99.90
2018-09-29T10:15:46.593Z,99.90
2018-09-29T10:18:15.200Z,99.90
2018-09-29T10:20:43.780Z,99.90
2018-09-29T10:23:12.325Z,99.90
2018-09-29T10:25:40.879Z,99.90
2018-09-29T10:28:09.401Z,99.90
2018-09-29T10:30:37.936Z,99.90
2018-09-29T10:33:06.519Z,99.90
2018-09-29T10:35:35.024Z,99.90
2018-09-29T10:38:03.551Z,99.90
2018-09-29T10:40:32.058Z,99.90
2018-09-29T10:43:00.652Z,99.90
2018-09-29T10:45:29.206Z,99.90
2018-09-29T10:47:57.704Z,99.90
2018-09-29T10:50:26.252Z,99.90
2018-09-29T10:52:54.810Z,99.90
2018-09-29T10:55:23.603Z,99.90
2018-09-29T10:57:52.133Z,99.90
2018-09-29T11:00:20.670Z,99.90
2018-09-29T11:02:49.199Z,98.80
2018-09-29T11:05:17.713Z,98.40
2018-09-29T11:07:46.257Z,98.80
2018-09-29T11:10:14.767Z,97.30
2018-09-29T11:12:43.265Z,96.20
2018-09-29T11:15:11.792Z,95.50
2018-09-29T11:17:40.276Z,96.00
2018-09-29T11:20:08.812Z,95.30
2018-09-29T11:22:37.326Z,95.50
2018-09-29T11:25:05.820Z,96.40
2018-09-29T11:27:34.356Z,99.80
2018-09-29T11:30:02.905Z,95.60
2018-09-29T11:32:31.445Z,95.90
2018-09-29T11:34:59.956Z,95.80
2018-09-29T11:37:28.440Z,93.20
2018-09-29T11:39:56.983Z,94.00
2018-09-29T11:42:25.487Z,92.50
2018-09-29T11:44:54.080Z,92.00
2018-09-29T11:47:22.527Z,91.60
2018-09-29T11:49:51.007Z,91.40
2018-09-29T11:52:19.584Z,91.30
2018-09-29T11:54:48.074Z,92.10
2018-09-29T11:57:16.579Z,91.00
2018-09-29T11:59:45.127Z,92.60
2018-09-29T12:02:13.684Z,91.10
2018-09-29T12:04:42.195Z,90.20
2018-09-29T12:07:10.748Z,88.10
2018-09-29T12:09:39.234Z,90.00
2018-09-29T12:12:08.145Z,90.30
2018-09-29T12:14:36.691Z,89.00
2018-09-29T12:17:05.490Z,91.70
2018-09-29T12:19:34.004Z,91.70
2018-09-29T12:22:02.537Z,90.90
2018-09-29T12:24:32.302Z,90.00
2018-09-29T12:27:00.983Z,91.40
2018-09-29T12:29:29.574Z,89.70
2018-09-29T12:31:58.051Z,87.20
2018-09-29T12:34:27.179Z,90.50
2018-09-29T12:36:55.723Z,89.10
2018-09-29T12:39:24.197Z,90.50
2018-09-29T12:41:53.668Z,87.60
2018-09-29T12:44:24.684Z,87.30
2018-09-29T12:46:53.207Z,87.80
2018-09-29T12:49:21.808Z,91.80
2018-09-29T12:51:50.385Z,87.20
2018-09-29T12:54:18.895Z,87.40
2018-09-29T12:56:47.423Z,89.10
2018-09-29T12:59:16.163Z,90.30
2018-09-29T13:01:44.660Z,87.80
2018-09-29T13:04:13.161Z,88.40
2018-09-29T13:06:41.717Z,87.60
2018-09-29T13:09:10.216Z,90.60
2018-09-29T13:11:38.876Z,87.10
2018-09-29T13:14:07.498Z,87.20
2018-09-29T13:16:36.117Z,88.80
2018-09-29T13:19:04.671Z,87.90
2018-09-29T13:21:33.156Z,89.30
2018-09-29T13:24:01.684Z,85.40
2018-09-29T13:26:30.203Z,85.90
2018-09-29T13:28:58.699Z,84.50
2018-09-29T13:31:27.201Z,86.60
2018-09-29T13:33:55.724Z,91.60
2018-09-29T13:36:24.233Z,90.20
2018-09-29T13:38:52.756Z,86.00
2018-09-29T13:41:21.295Z,89.10
2018-09-29T13:43:49.865Z,88.90
2018-09-29T13:46:18.404Z,89.90
2018-09-29T13:48:46.909Z,85.20
2018-09-29T13:51:15.413Z,87.10
2018-09-29T13:53:44.318Z,85.60
2018-09-29T13:56:12.844Z,85.60
2018-09-29T13:58:41.327Z,85.00
2018-09-29T14:01:09.842Z,84.90
2018-09-29T14:03:38.359Z,82.80
2018-09-29T14:06:07.100Z,83.60
2018-09-29T14:08:35.701Z,83.30
2018-09-29T14:11:04.196Z,86.10
2018-09-29T14:13:32.720Z,80.30
2018-09-29T14:16:01.201Z,81.40
2018-09-29T14:18:29.724Z,82.80
2018-09-29T14:20:58.344Z,82.90
2018-09-29T14:23:26.869Z,85.00
2018-09-29T14:25:55.375Z,84.60
2018-09-29T14:28:30.641Z,83.50
2018-09-29T14:30:59.145Z,83.70
2018-09-29T14:33:27.627Z,80.80
2018-09-29T14:35:56.170Z,84.00
2018-09-29T14:38:24.696Z,84.70
2018-09-29T14:40:53.226Z,82.20
2018-09-29T14:43:21.724Z,82.30
2018-09-29T14:45:50.217Z,83.70
2018-09-29T14:48:18.734Z,83.80
2018-09-29T14:50:47.253Z,84.90
2018-09-29T14:53:15.825Z,82.80
2018-09-29T14:55:44.315Z,85.60
2018-09-29T14:58:12.844Z,84.40
2018-09-29T15:00:41.388Z,83.80
2018-09-29T15:03:09.899Z,84.30
2018-09-29T15:05:38.495Z,84.60
2018-09-29T15:08:07.026Z,84.60
2018-09-29T15:10:35.579Z,82.50
2018-09-29T15:13:04.301Z,83.30
2018-09-29T15:15:32.819Z,82.00
2018-09-29T15:18:01.584Z,81.30
2018-09-29T15:20:31.126Z,83.50
2018-09-29T15:23:00.099Z,83.70
2018-09-29T15:25:28.729Z,85.10
2018-09-29T15:27:57.239Z,84.30
2018-09-29T15:30:25.745Z,84.00
2018-09-29T15:32:54.241Z,83.50
2018-09-29T15:35:22.760Z,84.50
2018-09-29T15:37:51.300Z,84.60
2018-09-29T15:40:19.843Z,85.90
2018-09-29T15:42:48.512Z,84.50
2018-09-29T15:45:17.010Z,86.40
2018-09-29T15:47:45.521Z,85.60
2018-09-29T15:50:14.019Z,85.90
2018-09-29T15:52:42.656Z,87.70
2018-09-29T15:55:11.213Z,88.40
2018-09-29T15:57:39.745Z,88.80
2018-09-29T16:00:08.284Z,88.90
2018-09-29T16:02:36.785Z,90.00
2018-09-29T16:05:05.600Z,90.50
2018-09-29T16:07:34.150Z,90.60
2018-09-29T16:10:03.028Z,90.20
2018-09-29T16:12:31.818Z,91.00
2018-09-29T16:15:00.388Z,91.30
2018-09-29T16:17:28.880Z,91.40
2018-09-29T16:19:57.396Z,91.70
2018-09-29T16:22:25.932Z,92.30
2018-09-29T16:24:54.412Z,93.20
2018-09-29T16:27:22.945Z,93.10
2018-09-29T16:29:51.448Z,94.00
2018-09-29T16:32:19.989Z,94.00
2018-09-29T16:34:48.493Z,93.70
2018-09-29T16:37:17.078Z,94.50
2018-09-29T16:39:45.572Z,94.60
2018-09-29T16:42:14.088Z,95.10
2018-09-29T16:44:42.629Z,95.80
2018-09-29T16:47:11.145Z,95.60
2018-09-29T16:49:39.700Z,96.40
2018-09-29T16:52:08.212Z,96.10
2018-09-29T16:54:36.694Z,96.60
2018-09-29T16:57:05.307Z,96.30
2018-09-29T16:59:33.822Z,96.50
2018-09-29T17:02:02.497Z,96.50
2018-09-29T17:04:31.227Z,97.60
2018-09-29T17:06:59.825Z,98.10
2018-09-29T17:09:28.405Z,97.90
2018-09-29T17:11:56.938Z,98.50
2018-09-29T17:14:25.496Z,99.40
2018-09-29T17:16:54.023Z,99.90
2018-09-29T17:19:22.528Z,99.90
2018-09-29T17:21:51.102Z,99.90
2018-09-29T17:24:19.612Z,99.90
2018-09-29T17:26:48.187Z,99.90
2018-09-29T17:29:16.721Z,99.90
2018-09-29T17:31:45.293Z,99.90
2018-09-29T17:34:13.839Z,99.90
2018-09-29T17:36:42.356Z,99.90
2018-09-29T17:39:11.849Z,99.90
2018-09-29T17:41:40.832Z,99.90
2018-09-29T17:44:09.614Z,99.90
2018-09-29T17:46:38.216Z,99.90
2018-09-29T17:49:06.760Z,99.90
2018-09-29T17:51:35.297Z,99.90
2018-09-29T17:54:03.880Z,99.90
2018-09-29T17:56:32.398Z,99.90
2018-09-29T17:59:01.258Z,99.90
2018-09-29T18:01:29.776Z,99.90
2018-09-29T18:03:58.456Z,99.90
2018-09-29T18:06:26.967Z,99.90
2018-09-29T18:08:55.513Z,99.90
2018-09-29T18:11:24.037Z,99.90
2018-09-29T18:13:52.553Z,99.90
2018-09-29T18:16:21.045Z,99.90
2018-09-29T18:18:49.580Z,99.90
2018-09-29T18:21:18.152Z,99.90
2018-09-29T18:23:46.627Z,99.90
2018-09-29T18:26:15.149Z,99.90
2018-09-29T18:28:43.710Z,99.90
2018-09-29T18:31:12.257Z,99.90
2018-09-29T18:33:40.758Z,99.90
2018-09-29T18:36:09.323Z,99.90
2018-09-29T18:38:38.273Z,99.90
2018-09-29T18:41:06.808Z,99.90
2018-09-29T18:43:35.454Z,99.90
2018-09-29T18:46:03.951Z,99.90
2018-09-29T18:48:32.470Z,99.90
2018-09-29T18:51:00.950Z,99.90
2018-09-29T18:53:29.460Z,99.90
2018-09-29T18:55:57.936Z,99.90
2018-09-29T18:58:26.418Z,99.90
2018-09-29T19:00:54.971Z,99.90
2018-09-29T19:03:23.460Z,99.90
2018-09-29T19:05:53.296Z,99.90
2018-09-29T19:08:21.784Z,99.90
2018-09-29T19:10:50.261Z,99.90
2018-09-29T19:13:18.824Z,99.90
2018-09-29T19:15:47.308Z,99.90
2018-09-29T19:18:15.820Z,99.90
2018-09-29T19:20:44.375Z,99.90
2018-09-29T19:23:12.894Z,99.90
2018-09-29T19:25:41.418Z,99.90
2018-09-29T19:28:09.914Z,99.90
2018-09-29T19:30:38.429Z,99.90
2018-09-29T19:33:07.093Z,99.90
2018-09-29T19:35:35.644Z,99.90
2018-09-29T19:38:04.296Z,99.90
2018-09-29T19:40:32.785Z,99.90
2018-09-29T19:43:01.351Z,99.90
2018-09-29T19:45:30.370Z,99.90
2018-09-29T19:47:58.848Z,99.90
2018-09-29T19:50:27.346Z,99.90
2018-09-29T19:52:55.832Z,99.90
2018-09-29T19:55:24.346Z,99.90
2018-09-29T19:57:52.893Z,99.90
2018-09-29T20:00:21.374Z,99.90
2018-09-29T20:02:49.895Z,99.90
2018-09-29T20:05:18.415Z,99.90
2018-09-29T20:07:46.963Z,99.90
2018-09-29T20:10:15.556Z,99.90
2018-09-29T20:12:44.028Z,99.90
2018-09-29T20:15:12.543Z,99.90
2018-09-29T20:17:41.076Z,99.90
2018-09-29T20:20:09.586Z,99.90
2018-09-29T20:22:38.143Z,99.90
2018-09-29T20:25:06.753Z,99.90
2018-09-29T20:27:35.268Z,99.90
2018-09-29T20:30:03.835Z,99.90
2018-09-29T20:32:32.343Z,99.90
2018-09-29T20:35:00.874Z,99.90
2018-09-29T20:37:29.392Z,99.90
2018-09-29T20:39:57.956Z,99.90
2018-09-29T20:42:26.456Z,99.90
2018-09-29T20:44:54.952Z,99.90
2018-09-29T20:47:23.525Z,99.90
2018-09-29T20:49:52.032Z,99.90
2018-09-29T20:52:20.578Z,99.90
2018-09-29T20:54:49.136Z,99.90
2018-09-29T20:57:17.654Z,99.90
2018-09-29T20:59:46.164Z,99.90
2018-09-29T21:02:14.648Z,99.90
2018-09-29T21:04:43.220Z,99.90
2018-09-29T21:07:11.784Z,99.90
2018-09-29T21:09:40.355Z,99.90
2018-09-29T21:12:08.882Z,99.90
2018-09-29T21:14:37.400Z,99.90
2018-09-29T21:17:05.932Z,99.90
2018-09-29T21:19:34.456Z,99.90
2018-09-29T21:22:02.967Z,99.90
2018-09-29T21:24:31.483Z,99.90
2018-09-29T21:26:59.939Z,99.90
2018-09-29T21:29:28.456Z,99.90
2018-09-29T21:31:56.983Z,99.90
2018-09-29T21:34:25.548Z,99.90
2018-09-29T21:36:54.084Z,99.90
2018-09-29T21:39:22.589Z,99.90
2018-09-29T21:41:51.116Z,99.90
2018-09-29T21:44:19.648Z,99.90
2018-09-29T21:46:48.138Z,99.90
2018-09-29T21:49:16.675Z,99.90
2018-09-29T21:51:45.185Z,99.90
2018-09-29T21:54:13.722Z,99.90
2018-09-29T21:56:42.227Z,99.90
2018-09-29T21:59:10.768Z,99.90
2018-09-29T22:01:39.323Z,99.90
2018-09-29T22:04:07.895Z,99.90
2018-09-29T22:06:36.427Z,99.90
2018-09-29T22:09:06.425Z,99.90
2018-09-29T22:11:34.919Z,99.90
2018-09-29T22:14:03.508Z,99.90
2018-09-29T22:16:32.042Z,99.90
2018-09-29T22:19:00.551Z,99.90
2018-09-29T22:21:29.079Z,99.90
2018-09-29T22:23:57.565Z,99.90
2018-09-29T22:26:26.094Z,99.90
2018-09-29T22:28:54.627Z,99.90
2018-09-29T22:31:23.151Z,99.90
2018-09-29T22:33:51.665Z,99.90
2018-09-29T22:36:20.187Z,99.90
2018-09-29T22:38:48.736Z,99.90
2018-09-29T22:41:17.235Z,99.90
2018-09-29T22:43:45.831Z,99.90
2018-09-29T22:46:15.440Z,99.90
2018-09-29T22:48:43.932Z,99.90
2018-09-29T22:51:12.463Z,99.90
2018-09-29T22:53:41.013Z,99.90
2018-09-29T22:56:09.571Z,99.90
2018-09-29T22:58:38.081Z,99.90
2018-09-29T23:01:07.052Z,99.90
2018-09-29T23:03:35.580Z,99.90
2018-09-29T23:06:04.067Z,99.90
2018-09-29T23:08:32.628Z,99.90
2018-09-29T23:11:01.152Z,99.90
2018-09-29T23:13:29.640Z,99.90
2018-09-29T23:15:58.187Z,99.90
2018-09-29T23:18:26.735Z,99.90
2018-09-29T23:20:55.292Z,99.90
2018-09-29T23:23:23.801Z,99.90
2018-09-29T23:25:52.316Z,99.90
2018-09-29T23:28:20.836Z,99.90
2018-09-29T23:30:49.347Z,99.90
2018-09-29T23:33:17.879Z,99.90
2018-09-29T23:35:46.367Z,99.90
2018-09-29T23:38:14.888Z,99.90
2018-09-29T23:40:43.391Z,99.90
2018-09-29T23:43:11.908Z,99.90
2018-09-29T23:45:40.417Z,99.90
2018-09-29T23:48:08.998Z,99.90
2018-09-29T23:50:37.485Z,99.90
2018-09-29T23:53:06.074Z,99.90
2018-09-29T23:55:34.582Z,99.90
2018-09-29T23:58:03.117Z,99.90
